Time;durP1;ratioP1;P1;durP2;ratioP2;P2;SDS_P1;SDS_P2;PMS_P1;PMS_P2;Temp;Humidity;BMP_temperature;BMP_pressure;BME280_temperature;BME280_humidity;BME280_pressure;Samples;Min_cycle;Max_cycle;Signal;HPM_P1;HPM_P2
2022/08/27 00:02:24;;;;;;;10.60;3.10;;;;;;;23.09;27.23;98874.51;25101;1314;3052567;-64
2022/08/27 00:04:53;;;;;;;11.60;3.40;;;;;;;23.04;27.36;98868.66;25066;1314;3027861;-65
2022/08/27 00:07:22;;;;;;;13.00;3.00;;;;;;;23.01;27.41;98871.01;25147;1315;3071019;-70
2022/08/27 00:09:51;;;;;;;11.90;2.80;;;;;;;22.99;26.91;98876.55;25072;1315;3026503;-67
2022/08/27 00:12:20;;;;;;;5.90;2.70;;;;;;;23.00;26.98;98874.13;25131;1314;3053072;-67
2022/08/27 00:14:50;;;;;;;15.10;3.20;;;;;;;22.97;27.18;98878.27;25084;1315;3026707;-63
2022/08/27 00:17:19;;;;;;;6.60;2.80;;;;;;;22.97;27.19;98869.19;25106;1313;3027243;-64
2022/08/27 00:19:48;;;;;;;12.70;3.10;;;;;;;22.95;26.79;98879.52;25106;1315;3053715;-68
2022/08/27 00:22:17;;;;;;;11.10;3.10;;;;;;;22.95;26.80;98880.25;25056;1315;3026319;-66
2022/08/27 00:24:46;;;;;;;12.40;3.20;;;;;;;22.98;26.62;98880.64;25141;1313;3054712;-65
2022/08/27 00:27:16;;;;;;;13.00;3.20;;;;;;;22.97;26.89;98878.80;25046;1313;3026273;-64
2022/08/27 00:29:46;;;;;;;13.60;3.20;;;;;;;22.99;26.69;98879.14;25060;1314;3049783;-67
2022/08/27 00:32:15;;;;;;;11.20;2.90;;;;;;;22.98;26.68;98881.31;25097;1313;3026568;-64
2022/08/27 00:34:44;;;;;;;11.20;3.00;;;;;;;22.97;26.86;98878.48;25160;1315;3029427;-65
2022/08/27 00:37:13;;;;;;;12.30;3.60;;;;;;;22.92;26.91;98878.11;25072;1313;3049039;-67
2022/08/27 00:39:42;;;;;;;18.00;3.50;;;;;;;22.94;26.62;98876.48;25105;1315;3027143;-65
2022/08/27 00:42:11;;;;;;;19.50;3.20;;;;;;;22.91;26.60;98880.16;25069;1314;3058838;-68
2022/08/27 00:44:41;;;;;;;12.00;3.00;;;;;;;22.92;26.79;98882.23;25099;1313;3026212;-66
2022/08/27 00:47:13;;;;;;;9.80;2.90;;;;;;;22.94;26.63;98878.56;25052;1313;3026338;-69
2022/08/27 00:49:48;;;;;;;15.10;3.00;;;;;;;22.93;26.64;98879.98;25104;1313;3056884;-66
2022/08/27 00:52:25;;;;;;;9.20;3.30;;;;;;;22.94;26.53;98875.02;25050;1313;3026355;-65
2022/08/27 00:55:01;;;;;;;20.10;3.60;;;;;;;22.88;26.96;98867.97;25063;1313;3052915;-68
2022/08/27 00:57:30;;;;;;;14.50;2.70;;;;;;;22.89;26.96;98875.14;25156;1314;3054269;-68
2022/08/27 01:00:00;;;;;;;25.40;3.40;;;;;;;22.88;26.93;98873.85;25087;1315;3027264;-68
2022/08/27 01:02:30;;;;;;;24.50;3.60;;;;;;;22.88;26.60;98874.98;25092;1315;3054396;-65
2022/08/27 01:05:11;;;;;;;21.70;3.10;;;;;;;22.89;26.86;98876.55;25089;1313;3027084;-64
2022/08/27 01:08:23;;;;;;;20.80;3.50;;;;;;;22.95;26.92;98871.67;31460;1319;3026567;-64
2022/08/27 01:10:53;;;;;;;21.50;4.20;;;;;;;23.10;26.81;98868.77;24881;1322;3053211;-65
2022/08/27 01:13:24;;;;;;;13.70;3.00;;;;;;;23.24;26.67;98867.09;24936;1322;3027002;-67
2022/08/27 01:15:57;;;;;;;19.30;3.50;;;;;;;23.15;26.82;98869.32;24941;1322;3026542;-67
2022/08/27 01:18:28;;;;;;;16.90;3.70;;;;;;;23.10;26.79;98869.76;24961;1322;3051408;-65
2022/08/27 01:21:01;;;;;;;16.90;3.70;;;;;;;23.00;26.92;98870.34;24167;1319;4903239;-65
2022/08/27 01:23:52;;;;;;;21.30;4.60;;;;;;;23.10;26.84;98871.63;25086;1316;3059048;-66
2022/08/27 01:26:21;;;;;;;26.40;4.10;;;;;;;23.24;26.54;98874.60;25085;1316;3051700;-65
2022/08/27 01:28:50;;;;;;;18.40;4.10;;;;;;;23.12;26.99;98874.58;25048;1315;3029094;-69
2022/08/27 01:31:19;;;;;;;21.60;3.80;;;;;;;23.06;26.96;98873.41;25070;1315;3056271;-67
2022/08/27 01:33:56;;;;;;;20.30;3.80;;;;;;;22.99;27.11;98874.07;25007;1318;3026857;-66
2022/08/27 01:36:25;;;;;;;23.60;4.00;;;;;;;22.93;27.38;98876.23;25107;1316;3056514;-66
2022/08/27 01:38:54;;;;;;;20.30;3.60;;;;;;;22.86;27.60;98873.63;25081;1316;3026590;-66
2022/08/27 01:41:24;;;;;;;27.40;3.80;;;;;;;22.80;27.61;98869.02;25087;1316;3052455;-68
2022/08/27 01:43:53;;;;;;;18.70;4.00;;;;;;;22.76;27.49;98873.13;25126;1315;3026045;-65
2022/08/27 01:46:23;;;;;;;20.70;4.00;;;;;;;22.78;27.60;98874.23;25061;1316;3050470;-67
2022/08/27 01:48:52;;;;;;;23.10;3.60;;;;;;;22.77;28.00;98870.34;25143;1315;3026745;-64
2022/08/27 01:51:22;;;;;;;23.70;4.30;;;;;;;22.74;27.83;98871.52;25132;1316;3027090;-67
2022/08/27 01:53:52;;;;;;;14.70;3.40;;;;;;;22.73;28.10;98874.58;25030;1315;3026796;-66
2022/08/27 01:56:20;;;;;;;18.30;3.80;;;;;;;22.72;27.99;98873.41;25083;1316;3026785;-67
2022/08/27 01:58:50;;;;;;;18.40;3.50;;;;;;;22.74;28.11;98875.27;25100;1316;3055039;-71
2022/08/27 02:01:20;;;;;;;22.90;4.10;;;;;;;22.73;28.13;98877.02;25118;1316;3029152;-67
2022/08/27 02:03:50;;;;;;;20.90;3.70;;;;;;;22.69;28.22;98874.48;25100;1315;3026396;-65
2022/08/27 02:06:19;;;;;;;30.20;4.20;;;;;;;22.67;28.14;98872.20;25132;1316;3027511;-64
2022/08/27 02:08:49;;;;;;;17.50;3.80;;;;;;;22.65;28.30;98871.55;25114;1316;3058258;-67
2022/08/27 02:11:18;;;;;;;27.50;3.90;;;;;;;22.65;28.23;98872.95;25103;1316;3026403;-66
2022/08/27 02:13:47;;;;;;;28.90;3.70;;;;;;;22.61;28.60;98875.95;25033;1315;3026016;-68
2022/08/27 02:16:17;;;;;;;26.50;4.30;;;;;;;22.60;28.18;98874.28;25064;1316;3058550;-67
2022/08/27 02:18:46;;;;;;;35.50;3.90;;;;;;;22.60;28.32;98876.09;25143;1316;3026782;-68
2022/08/27 02:21:16;;;;;;;19.60;3.80;;;;;;;22.60;28.45;98875.23;25130;1315;3051574;-68
2022/08/27 02:23:45;;;;;;;22.50;3.40;;;;;;;22.61;28.63;98877.27;25143;1314;3026842;-66
2022/08/27 02:26:14;;;;;;;23.00;3.50;;;;;;;22.60;28.55;98878.24;25072;1316;3027144;-62
2022/08/27 02:28:43;;;;;;;21.50;3.40;;;;;;;22.57;28.66;98882.81;25053;1316;3052324;-72
2022/08/27 02:31:12;;;;;;;19.80;4.10;;;;;;;22.55;28.81;98875.45;25070;1314;3026726;-66
2022/08/27 02:33:43;;;;;;;29.40;4.00;;;;;;;22.51;28.87;98881.75;25092;1316;3054734;-69
2022/08/27 02:36:12;;;;;;;20.30;4.00;;;;;;;22.50;28.91;98884.58;25129;1315;3026504;-68
2022/08/27 02:38:41;;;;;;;23.20;4.40;;;;;;;22.51;28.80;98885.45;25053;1316;3048316;-67
2022/08/27 02:41:10;;;;;;;22.90;4.10;;;;;;;22.50;28.86;98884.45;25130;1315;3026410;-64
2022/08/27 02:43:39;;;;;;;22.50;3.60;;;;;;;22.46;28.84;98889.83;25056;1314;3066391;-65
2022/08/27 02:46:10;;;;;;;18.40;4.00;;;;;;;22.45;29.02;98888.73;25121;1316;3026591;-64
2022/08/27 02:48:40;;;;;;;22.50;3.80;;;;;;;22.44;28.85;98887.45;25063;1316;3050862;-64
2022/08/27 02:51:09;;;;;;;28.80;3.70;;;;;;;22.40;28.92;98886.20;25044;1315;3026618;-67
2022/08/27 02:53:38;;;;;;;18.30;3.50;;;;;;;22.42;28.97;98888.28;25079;1316;3026524;-68
2022/08/27 02:56:08;;;;;;;18.10;4.00;;;;;;;22.41;28.94;98889.03;25026;1316;3052241;-70
2022/08/27 02:58:37;;;;;;;30.90;4.40;;;;;;;22.37;29.09;98887.39;25005;1315;3026786;-68
2022/08/27 03:01:06;;;;;;;16.60;3.10;;;;;;;22.35;29.14;98884.83;25080;1316;3027279;-69
2022/08/27 03:03:35;;;;;;;20.30;4.10;;;;;;;22.39;28.85;98893.27;25029;1314;3053899;-67
2022/08/27 03:06:05;;;;;;;22.50;3.50;;;;;;;22.40;28.79;98893.25;25036;1316;3027289;-64
2022/08/27 03:08:35;;;;;;;20.80;3.90;;;;;;;22.40;28.93;98893.44;25062;1315;3026664;-66
2022/08/27 03:11:06;;;;;;;22.20;3.80;;;;;;;22.42;29.00;98893.40;25129;1315;3026384;-67
2022/08/27 03:13:37;;;;;;;23.00;3.90;;;;;;;22.44;28.95;98896.95;25055;1316;3071263;-65
2022/08/27 03:16:06;;;;;;;22.30;4.20;;;;;;;22.41;29.13;98899.25;25059;1316;3026566;-66
2022/08/27 03:18:36;;;;;;;15.00;2.80;;;;;;;22.40;29.08;98900.98;25114;1316;3026830;-69
2022/08/27 03:21:07;;;;;;;26.20;3.70;;;;;;;22.39;29.22;98904.06;25043;1315;3026541;-65
2022/08/27 03:23:36;;;;;;;18.00;3.10;;;;;;;22.37;29.04;98899.15;25025;1315;3052085;-67
2022/08/27 03:26:08;;;;;;;18.60;3.50;;;;;;;22.36;29.23;98900.23;25125;1316;3026920;-66
2022/08/27 03:28:37;;;;;;;21.60;3.80;;;;;;;22.36;29.13;98897.12;25038;1319;3027577;-66
2022/08/27 03:31:08;;;;;;;13.50;3.10;;;;;;;22.34;29.03;98898.08;25109;1316;3026174;-66
2022/08/27 03:33:38;;;;;;;11.20;2.90;;;;;;;22.29;29.38;98898.68;25180;1316;3052881;-65
2022/08/27 03:36:07;;;;;;;12.40;3.10;;;;;;;22.30;29.18;98899.68;25099;1315;3027156;-65
2022/08/27 03:38:37;;;;;;;12.30;3.10;;;;;;;22.26;29.35;98893.79;25183;1316;3027161;-69
2022/08/27 03:41:06;;;;;;;18.50;3.10;;;;;;;22.26;29.29;98896.53;25072;1316;3027026;-66
2022/08/27 03:43:35;;;;;;;17.30;3.40;;;;;;;22.26;29.35;98896.13;25064;1316;3028299;-66
2022/08/27 03:46:06;;;;;;;18.80;3.40;;;;;;;22.26;29.27;98893.70;25110;1315;3058771;-66
2022/08/27 03:48:34;;;;;;;13.60;3.10;;;;;;;22.27;29.11;98896.20;25099;1315;3027215;-63
2022/08/27 03:51:09;;;;;;;18.90;2.70;;;;;;;22.27;29.19;98892.95;25114;1316;3026790;-68
2022/08/27 03:53:39;;;;;;;18.60;3.50;;;;;;;22.27;29.17;98897.29;25134;1314;3051176;-68
2022/08/27 03:56:08;;;;;;;18.70;3.40;;;;;;;22.23;29.30;98895.13;25070;1316;3027033;-65
2022/08/27 03:58:38;;;;;;;14.10;2.90;;;;;;;22.26;29.06;98891.92;25042;1316;3026179;-68
2022/08/27 04:01:07;;;;;;;21.20;3.70;;;;;;;22.26;29.39;98893.42;25113;1316;3026873;-68
2022/08/27 04:03:36;;;;;;;17.50;3.20;;;;;;;22.25;29.49;98890.32;25084;1315;3070517;-66
2022/08/27 04:06:06;;;;;;;19.20;4.30;;;;;;;22.26;29.24;98885.96;25094;1315;3026881;-68
2022/08/27 04:08:35;;;;;;;15.70;3.50;;;;;;;22.26;29.48;98884.20;25053;1315;3050018;-65
2022/08/27 04:11:05;;;;;;;16.50;3.30;;;;;;;22.23;29.55;98886.70;25098;1315;3026370;-65
2022/08/27 04:13:35;;;;;;;16.40;3.00;;;;;;;22.24;29.47;98888.33;25113;1315;3053569;-66
2022/08/27 04:16:05;;;;;;;17.60;3.20;;;;;;;22.25;29.83;98884.88;25087;1315;3026384;-64
2022/08/27 04:18:34;;;;;;;15.50;3.10;;;;;;;22.24;29.97;98888.73;25081;1316;3026891;-67
2022/08/27 04:21:07;;;;;;;10.20;3.30;;;;;;;22.22;30.17;98890.19;25112;1316;3026634;-65
2022/08/27 04:23:37;;;;;;;18.70;3.00;;;;;;;22.18;30.10;98889.38;25126;1315;3052588;-64
2022/08/27 04:26:07;;;;;;;15.90;3.50;;;;;;;22.13;30.69;98895.35;25115;1315;3027118;-68
2022/08/27 04:28:36;;;;;;;12.10;3.00;;;;;;;22.13;30.30;98892.85;25098;1316;3026779;-66
2022/08/27 04:31:05;;;;;;;13.00;2.90;;;;;;;22.13;30.39;98892.19;25098;1316;3026486;-69
2022/08/27 04:33:34;;;;;;;14.90;3.00;;;;;;;22.13;30.63;98893.74;25075;1316;3070426;-64
2022/08/27 04:36:05;;;;;;;15.70;3.70;;;;;;;22.09;30.51;98892.12;25059;1315;3026061;-62
2022/08/27 04:38:34;;;;;;;19.30;3.40;;;;;;;22.04;30.89;98890.93;25138;1316;3051237;-64
2022/08/27 04:41:21;;;;;;;21.50;3.50;;;;;;;22.06;30.76;98892.12;25089;1315;3026223;-66
2022/08/27 04:43:55;;;;;;;14.90;3.20;;;;;;;22.09;31.19;98889.45;25142;1315;3056032;-65
2022/08/27 04:46:26;;;;;;;12.40;3.50;;;;;;;22.10;30.86;98891.94;25133;1316;3050945;-66
2022/08/27 04:48:59;;;;;;;13.60;3.20;;;;;;;22.10;31.16;98893.05;25073;1315;3026668;-66
2022/08/27 04:51:28;;;;;;;28.40;4.10;;;;;;;22.08;31.52;98891.45;25054;1314;3026607;-64
2022/08/27 04:53:57;;;;;;;20.40;3.60;;;;;;;22.06;31.62;98895.79;25056;1315;3027157;-66
2022/08/27 04:56:26;;;;;;;16.40;3.10;;;;;;;22.08;31.63;98894.38;25089;1315;3026496;-64
2022/08/27 04:58:55;;;;;;;14.80;2.90;;;;;;;22.12;31.66;98892.30;25063;1315;3050939;-60
2022/08/27 05:01:26;;;;;;;13.30;3.50;;;;;;;22.15;31.74;98893.90;25125;1315;3026512;-66
2022/08/27 05:03:55;;;;;;;20.50;3.30;;;;;;;22.16;31.76;98894.46;25094;1315;3069474;-64
2022/08/27 05:06:24;;;;;;;22.20;3.40;;;;;;;22.20;31.84;98890.95;25120;1315;3025937;-68
2022/08/27 05:08:53;;;;;;;10.10;2.70;;;;;;;22.21;31.99;98892.83;25094;1315;3026666;-63
2022/08/27 05:11:25;;;;;;;20.00;4.00;;;;;;;22.22;32.21;98895.01;25090;1315;3069253;-63
2022/08/27 05:13:54;;;;;;;16.20;3.10;;;;;;;22.18;32.21;98894.45;25097;1318;3027114;-63
2022/08/27 05:16:25;;;;;;;9.90;2.70;;;;;;;22.29;32.08;98898.69;25109;1315;3028439;-65
2022/08/27 05:18:54;;;;;;;18.30;3.20;;;;;;;22.37;32.06;98896.29;25030;1316;3026542;-63
2022/08/27 05:21:29;;;;;;;19.90;3.50;;;;;;;22.41;32.03;98898.39;25081;1316;3050896;-67
2022/08/27 05:24:00;;;;;;;14.90;4.10;;;;;;;22.45;31.78;98892.73;25087;1315;3052106;-63
2022/08/27 05:26:29;;;;;;;20.10;3.30;;;;;;;22.59;31.57;98893.58;25145;1315;3026148;-64
2022/08/27 05:28:59;;;;;;;20.30;3.10;;;;;;;22.69;31.48;98892.55;25078;1315;3026844;-66
2022/08/27 05:31:28;;;;;;;19.90;3.90;;;;;;;22.78;31.60;98893.42;25134;1315;3026599;-68
2022/08/27 05:33:58;;;;;;;14.20;3.60;;;;;;;22.82;31.57;98894.71;25036;1315;3026647;-66
2022/08/27 05:36:29;;;;;;;14.70;3.00;;;;;;;22.88;31.40;98894.88;25058;1315;3058936;-67
2022/08/27 05:39:00;;;;;;;23.20;3.80;;;;;;;23.02;30.91;98894.92;25218;1315;3027305;-63
2022/08/27 05:41:30;;;;;;;15.50;3.10;;;;;;;23.06;31.30;98887.42;25102;1316;3027330;-68
2022/08/27 05:44:09;;;;;;;11.10;2.90;;;;;;;23.19;31.17;98883.52;25073;1316;3026344;-66
2022/08/27 05:46:39;;;;;;;19.00;3.70;;;;;;;23.26;30.86;98884.02;25070;1316;3071786;-65
2022/08/27 05:49:09;;;;;;;18.80;3.10;;;;;;;23.30;30.93;98875.80;25065;1315;3027569;-67
2022/08/27 05:51:39;;;;;;;18.60;3.40;;;;;;;23.40;30.63;98876.90;25059;1315;3026474;-68
2022/08/27 05:54:13;;;;;;;11.40;3.00;;;;;;;23.47;30.59;98874.09;25084;1316;3027454;-66
2022/08/27 05:56:42;;;;;;;17.20;3.10;;;;;;;23.57;30.65;98871.50;25087;1315;3056073;-66
2022/08/27 06:01:59;;;;;;;17.10;3.10;;;;;;;23.65;30.81;98871.16;25128;1315;3053175;-68
2022/08/27 06:04:28;;;;;;;13.90;3.20;;;;;;;23.72;30.60;98875.84;25071;1316;3026446;-66
2022/08/27 06:06:57;;;;;;;14.60;3.60;;;;;;;23.80;30.52;98874.97;25069;1316;3055925;-65
2022/08/27 06:09:28;;;;;;;12.50;3.00;;;;;;;23.83;30.54;98878.59;25070;1315;3026292;-65
2022/08/27 06:11:59;;;;;;;8.80;2.90;;;;;;;23.90;30.68;98879.55;25097;1315;3048435;-67
2022/08/27 06:14:29;;;;;;;14.40;3.40;;;;;;;23.93;30.70;98880.96;25121;1316;3026269;-68
2022/08/27 06:17:01;;;;;;;13.70;3.60;;;;;;;23.96;30.93;98879.79;25087;1316;3026510;-71
2022/08/27 06:19:33;;;;;;;19.40;3.80;;;;;;;24.01;31.15;98882.60;25037;1316;3026550;-69
2022/08/27 06:22:02;;;;;;;12.70;3.40;;;;;;;24.03;30.25;98885.70;25199;1315;3027301;-67
2022/08/27 06:24:31;;;;;;;10.60;3.10;;;;;;;24.07;30.28;98886.71;25054;1315;3027062;-66
2022/08/27 06:27:00;;;;;;;14.20;3.60;;;;;;;24.12;30.54;98887.63;25119;1316;3026507;-67
2022/08/27 06:29:29;;;;;;;16.20;3.30;;;;;;;24.17;31.08;98886.00;25148;1315;3049500;-65
2022/08/27 06:31:58;;;;;;;21.30;3.50;;;;;;;24.18;31.06;98882.10;25090;1316;3026441;-64
2022/08/27 06:34:27;;;;;;;10.20;2.90;;;;;;;24.24;30.81;98884.33;25068;1315;3055843;-66
2022/08/27 06:36:56;;;;;;;14.90;3.70;;;;;;;24.35;30.53;98881.75;25104;1315;3026926;-65
2022/08/27 06:39:26;;;;;;;13.20;3.30;;;;;;;24.47;29.98;98885.00;25121;1316;3054137;-67
2022/08/27 06:41:54;;;;;;;14.30;3.90;;;;;;;24.50;30.24;98883.25;25100;1315;3026095;-65
2022/08/27 06:44:23;;;;;;;7.80;2.90;;;;;;;24.59;30.26;98877.98;25101;1315;3027068;-66
2022/08/27 06:46:53;;;;;;;10.40;3.20;;;;;;;24.66;30.45;98878.70;25081;1315;3051687;-65
2022/08/27 06:49:22;;;;;;;12.30;3.20;;;;;;;24.73;30.25;98876.17;25152;1315;3027317;-66
2022/08/27 06:51:52;;;;;;;13.80;3.40;;;;;;;24.78;30.09;98875.90;25180;1316;3052155;-69
2022/08/27 06:54:21;;;;;;;13.50;3.50;;;;;;;24.86;30.10;98876.31;25056;1315;3028583;-71
2022/08/27 06:56:50;;;;;;;15.30;3.30;;;;;;;24.99;30.19;98870.46;25141;1315;3026831;-62
2022/08/27 06:59:19;;;;;;;9.20;3.00;;;;;;;25.15;29.91;98870.66;25126;1316;3054616;-64
2022/08/27 07:01:49;;;;;;;13.70;3.50;;;;;;;25.27;29.85;98871.77;25108;1316;3027192;-67
2022/08/27 07:04:21;;;;;;;12.40;3.80;;;;;;;25.32;29.92;98868.83;25114;1315;3026341;-68
2022/08/27 07:06:50;;;;;;;17.50;3.80;;;;;;;25.44;29.57;98868.40;25166;1315;3026719;-67
2022/08/27 07:09:19;;;;;;;10.50;3.30;;;;;;;25.51;29.22;98867.30;25057;1315;3027510;-67
2022/08/27 07:11:48;;;;;;;9.20;3.30;;;;;;;25.61;28.57;98863.96;25149;1315;3056576;-68
2022/08/27 07:14:17;;;;;;;7.20;2.70;;;;;;;25.74;28.28;98858.96;25147;1315;3026287;-65
2022/08/27 07:16:48;;;;;;;10.30;3.10;;;;;;;25.84;27.98;98856.03;25120;1315;3055027;-67
2022/08/27 07:19:17;;;;;;;10.50;3.10;;;;;;;25.95;27.91;98854.64;25091;1315;3027103;-68
2022/08/27 07:21:47;;;;;;;17.50;3.00;;;;;;;26.04;27.53;98855.95;25176;1315;3026808;-67
2022/08/27 07:24:16;;;;;;;17.80;3.10;;;;;;;26.10;27.57;98853.14;25147;1315;3053840;-63
2022/08/27 07:26:45;;;;;;;9.30;2.70;;;;;;;26.17;27.07;98851.27;25138;1314;3029067;-68
2022/08/27 07:29:14;;;;;;;12.70;3.40;;;;;;;26.27;27.15;98845.16;25167;1315;3026482;-67
2022/08/27 07:31:43;;;;;;;14.10;3.50;;;;;;;26.38;27.27;98845.21;25138;1315;3051994;-64
2022/08/27 07:34:12;;;;;;;9.40;3.10;;;;;;;26.48;27.49;98841.88;25167;1315;3027170;-65
2022/08/27 07:36:43;;;;;;;5.90;2.90;;;;;;;26.50;27.57;98839.05;25103;1315;3054333;-64
2022/08/27 07:39:14;;;;;;;16.50;3.00;;;;;;;26.55;27.28;98838.21;25082;1315;3026754;-65
2022/08/27 07:44:31;;;;;;;8.80;3.10;;;;;;;26.66;27.24;98831.41;25139;1315;3054889;-66
2022/08/27 07:47:01;;;;;;;12.30;3.20;;;;;;;26.77;26.72;98829.61;25087;1316;3026890;-69
2022/08/27 07:49:30;;;;;;;8.10;2.50;;;;;;;26.86;26.64;98832.47;25191;1315;3026591;-65
2022/08/27 07:52:01;;;;;;;8.90;3.50;;;;;;;26.95;26.70;98828.04;25174;1315;3054168;-68
2022/08/27 07:54:30;;;;;;;18.00;4.00;;;;;;;27.02;26.51;98826.38;25161;1316;3026608;-69
2022/08/27 07:56:59;;;;;;;13.40;3.50;;;;;;;27.09;26.54;98824.17;25089;1315;3026930;-69
2022/08/27 07:59:29;;;;;;;13.20;4.10;;;;;;;27.18;26.46;98823.64;25049;1315;3054031;-67
2022/08/27 08:01:58;;;;;;;13.10;3.20;;;;;;;27.20;26.21;98817.89;25061;1315;3028211;-66
2022/08/27 08:04:27;;;;;;;17.70;3.40;;;;;;;27.32;26.01;98815.77;25098;1316;3051628;-65
2022/08/27 08:06:56;;;;;;;17.40;3.60;;;;;;;27.39;26.45;98812.32;25114;1315;3027281;-71
2022/08/27 08:09:25;;;;;;;10.60;2.90;;;;;;;27.46;26.31;98811.31;25126;1315;3068843;-65
2022/08/27 08:11:54;;;;;;;15.50;2.90;;;;;;;27.57;25.90;98812.02;25135;1316;3026283;-64
2022/08/27 08:14:23;;;;;;;7.70;2.80;;;;;;;27.61;25.59;98814.92;25056;1316;3053565;-69
2022/08/27 08:16:53;;;;;;;10.90;2.80;;;;;;;27.69;25.61;98820.48;25072;1315;3026659;-67
2022/08/27 08:19:23;;;;;;;12.50;3.20;;;;;;;27.75;25.60;98820.70;25178;1315;3028008;-64
2022/08/27 08:21:52;;;;;;;18.20;3.40;;;;;;;27.84;25.76;98823.16;25120;1315;3051500;-68
2022/08/27 08:24:21;;;;;;;12.10;3.50;;;;;;;27.95;25.63;98825.05;25084;1315;3026554;-65
2022/08/27 08:26:50;;;;;;;10.40;3.10;;;;;;;28.06;25.64;98821.96;25147;1315;3055321;-70
2022/08/27 08:29:19;;;;;;;9.40;2.70;;;;;;;28.14;25.57;98817.80;25137;1315;3026776;-66
2022/08/27 08:31:48;;;;;;;13.10;3.00;;;;;;;28.27;25.57;98816.76;25082;1315;3050566;-73
2022/08/27 08:34:18;;;;;;;8.40;2.60;;;;;;;28.35;25.38;98821.00;25149;1315;3026952;-67
2022/08/27 08:36:48;;;;;;;20.70;3.00;;;;;;;28.46;25.31;98820.54;25075;1316;3054233;-63
2022/08/27 08:39:18;;;;;;;7.80;3.00;;;;;;;28.55;25.34;98819.95;25099;1315;3026568;-65
2022/08/27 08:41:50;;;;;;;12.70;3.10;;;;;;;28.63;25.31;98817.77;25156;1315;3051974;-66
2022/08/27 08:44:23;;;;;;;8.40;3.10;;;;;;;28.72;25.28;98819.99;25040;1316;3029836;-60
2022/08/27 08:46:55;;;;;;;9.40;3.60;;;;;;;28.77;24.98;98816.02;25086;1315;3049350;-69
2022/08/27 08:49:33;;;;;;;13.50;3.70;;;;;;;28.75;24.95;98815.90;25093;1315;3027398;-66
2022/08/27 08:52:16;;;;;;;14.00;3.30;;;;;;;28.77;24.75;98814.95;25106;1314;3054420;-69
2022/08/27 08:54:45;;;;;;;12.30;4.00;;;;;;;28.86;25.08;98823.66;25050;1316;3071150;-66
2022/08/27 08:57:19;;;;;;;14.40;3.00;;;;;;;28.96;25.09;98824.15;25134;1316;3026509;-66
2022/08/27 09:00:00;;;;;;;11.50;3.10;;;;;;;29.11;24.66;98820.77;25160;1316;3056697;-67
2022/08/27 09:02:29;;;;;;;11.70;2.80;;;;;;;29.28;24.91;98819.11;25145;1315;3068344;-66
2022/08/27 09:05:03;;;;;;;8.30;2.80;;;;;;;29.47;24.59;98816.55;25147;1315;3027788;-66
2022/08/27 09:07:35;;;;;;;7.80;3.00;;;;;;;29.58;24.61;98815.04;25174;1315;3050765;-67
2022/08/27 09:10:25;;;;;;;9.60;3.20;;;;;;;29.71;24.53;98809.42;25094;1316;3026551;-72
2022/08/27 09:12:55;;;;;;;14.10;2.80;;;;;;;29.82;24.80;98808.73;25131;1314;3051531;-65
2022/08/27 09:15:27;;;;;;;12.60;3.00;;;;;;;29.84;24.45;98812.36;25145;1315;3028672;-65
2022/08/27 09:18:13;;;;;;;14.50;2.50;;;;;;;29.85;24.46;98811.82;25143;1315;3027048;-63
2022/08/27 09:20:45;;;;;;;10.70;2.20;;;;;;;29.80;24.23;98812.80;25073;1315;3058687;-65
2022/08/27 09:23:31;;;;;;;8.60;2.40;;;;;;;29.76;24.31;98817.86;25123;1315;3026662;-66
2022/08/27 09:26:00;;;;;;;15.00;2.90;;;;;;;29.76;24.23;98814.73;25088;1315;3053075;-69
2022/08/27 09:31:18;;;;;;;16.80;2.80;;;;;;;29.98;24.49;98814.66;25064;1315;3052118;-66
2022/08/27 09:33:47;;;;;;;6.50;2.50;;;;;;;30.14;24.41;98815.73;25093;1315;3026063;-65
2022/08/27 09:36:16;;;;;;;10.90;2.80;;;;;;;30.21;24.53;98815.51;25110;1315;3028345;-68
2022/08/27 09:38:55;;;;;;;13.90;2.40;;;;;;;30.15;24.66;98820.63;25040;1315;3052339;-69
2022/08/27 09:41:34;;;;;;;10.20;2.60;;;;;;;30.02;24.24;98820.07;25146;1314;3054185;-67
2022/08/27 09:44:09;;;;;;;16.80;2.80;;;;;;;29.94;24.58;98821.89;25109;1315;3053997;-64
2022/08/27 09:46:38;;;;;;;9.20;2.50;;;;;;;29.89;24.39;98819.88;25045;1315;3070003;-67
2022/08/27 09:49:11;;;;;;;16.10;3.30;;;;;;;29.87;24.67;98821.11;25065;1316;3026272;-63
2022/08/27 09:51:41;;;;;;;12.00;2.20;;;;;;;29.95;24.56;98824.95;25101;1315;3028598;-64
2022/08/27 09:54:11;;;;;;;14.60;3.30;;;;;;;30.06;24.55;98836.41;25137;1315;3027397;-68
2022/08/27 09:56:47;;;;;;;19.40;3.10;;;;;;;30.16;24.82;98837.70;25087;1315;3026521;-65
2022/08/27 09:59:21;;;;;;;13.60;3.40;;;;;;;30.22;24.72;98845.58;25055;1316;3051758;-67
2022/08/27 10:02:21;;;;;;;20.10;3.00;;;;;;;30.39;24.57;98851.64;25124;1315;3052694;-65
2022/08/27 10:04:51;;;;;;;13.80;3.30;;;;;;;30.58;24.32;98846.00;25166;1316;3054489;-64
2022/08/27 10:07:43;;;;;;;8.60;2.50;;;;;;;30.69;24.44;98850.50;25123;1315;3026712;-65
2022/08/27 10:10:16;;;;;;;17.00;2.80;;;;;;;30.76;24.21;98851.30;25041;1315;3051809;-66
2022/08/27 10:13:03;;;;;;;11.50;2.90;;;;;;;30.72;23.79;98852.80;25114;1315;3052645;-67
2022/08/27 10:16:15;;;;;;;17.10;3.40;;;;;;;30.61;23.97;98850.41;25063;1315;3052827;-65
2022/08/27 10:18:59;;;;;;;11.90;3.10;;;;;;;30.50;24.76;98851.38;25155;1315;3056091;-66
2022/08/27 10:21:45;;;;;;;9.20;2.70;;;;;;;30.50;24.58;98850.05;25110;1315;3052397;-66
2022/08/27 10:24:33;;;;;;;17.90;3.40;;;;;;;30.55;24.40;98847.73;25089;1316;3053825;-69
2022/08/27 10:27:20;;;;;;;15.70;3.20;;;;;;;30.61;24.34;98847.91;25239;1315;3052195;-64
2022/08/27 10:30:05;;;;;;;16.90;3.90;;;;;;;30.73;24.29;98843.66;25093;1316;3070904;-63
2022/08/27 10:32:46;;;;;;;14.40;3.30;;;;;;;30.93;24.46;98840.14;25037;1316;3051823;-65
2022/08/27 10:35:25;;;;;;;14.00;3.10;;;;;;;31.08;23.92;98839.52;25151;1316;3053732;-64
2022/08/27 10:38:23;;;;;;;23.60;4.50;;;;;;;31.10;24.22;98843.86;25161;1316;3053250;-70
2022/08/27 10:41:34;;;;;;;24.80;4.10;;;;;;;31.15;24.13;98849.68;25168;1315;3057209;-66
2022/08/27 10:44:28;;;;;;;26.00;4.70;;;;;;;31.15;24.16;98849.75;24867;1322;3050363;-64
2022/08/27 10:47:20;;;;;;;26.20;4.80;;;;;;;31.07;24.40;98853.77;25067;1315;3055954;-68
2022/08/27 10:49:58;;;;;;;20.20;4.30;;;;;;;31.07;24.07;98853.65;25029;1315;3054516;-69
2022/08/27 10:52:38;;;;;;;17.30;4.70;;;;;;;31.02;24.36;98850.30;25135;1318;3069269;-71
2022/08/27 10:55:29;;;;;;;24.90;5.50;;;;;;;30.95;24.34;98848.20;25024;1315;3049650;-67
2022/08/27 10:58:06;;;;;;;32.10;5.80;;;;;;;30.92;23.93;98843.14;25161;1316;3052841;-68
2022/08/27 11:00:50;;;;;;;27.20;5.30;;;;;;;30.92;24.04;98845.94;25104;1315;3055224;-68
2022/08/27 11:03:37;;;;;;;;;;;;;;;30.97;24.31;98840.87;25102;1316;3056564;-65
2022/08/27 11:06:13;;;;;;;18.90;4.70;;;;;;;30.94;24.65;98844.98;25074;1315;3050235;-70
2022/08/27 11:08:49;;;;;;;23.10;4.60;;;;;;;31.03;24.80;98845.51;25097;1316;3052644;-64
2022/08/27 11:11:45;;;;;;;22.30;4.00;;;;;;;31.19;24.92;98846.66;25066;1315;3051914;-71
2022/08/27 11:14:36;;;;;;;22.80;3.90;;;;;;;31.41;24.69;98844.83;25025;1319;3068866;-67
2022/08/27 11:17:09;;;;;;;20.00;4.30;;;;;;;31.76;24.08;98844.73;25121;1316;3049514;-70
2022/08/27 11:19:51;;;;;;;14.80;3.70;;;;;;;31.98;24.28;98844.04;25089;1315;3026479;-69
2022/08/27 11:22:28;;;;;;;13.50;3.30;;;;;;;32.11;24.13;98843.14;25153;1315;3052978;-68
2022/08/27 11:25:10;;;;;;;12.00;3.30;;;;;;;32.24;23.56;98845.90;25070;1319;3056978;-64
2022/08/27 11:27:39;;;;;;;15.20;4.00;;;;;;;32.36;23.59;98844.66;25098;1316;3050601;-68
2022/08/27 11:30:16;;;;;;;30.10;4.30;;;;;;;32.40;23.38;98845.26;25086;1319;3026800;-69
2022/08/27 11:32:53;;;;;;;21.80;4.10;;;;;;;32.46;23.15;98847.95;25144;1316;3056479;-68
2022/08/27 11:36:01;;;;;;;22.60;3.90;;;;;;;32.47;23.20;98838.39;25098;1315;3055066;-67
2022/08/27 11:38:37;;;;;;;19.40;3.30;;;;;;;32.33;22.80;98844.45;25069;1315;3055441;-68
2022/08/27 11:41:25;;;;;;;17.40;3.50;;;;;;;32.42;22.88;98848.38;25145;1316;3051948;-72
2022/08/27 11:43:54;;;;;;;13.90;3.30;;;;;;;32.54;23.27;98845.25;25053;1316;3071343;-67